createdAt,value
2023-01-13T00:01:59.561Z,75.34
2023-01-13T00:06:59.487Z,73.71
2023-01-13T00:11:59.425Z,72.79
2023-01-13T00:16:59.362Z,73.10
2023-01-13T00:21:59.319Z,74.86
2023-01-13T00:26:59.225Z,76.32
2023-01-13T00:31:59.157Z,76.50
2023-01-13T00:36:59.091Z,75.57
2023-01-13T00:41:59.045Z,75.88
2023-01-13T00:46:58.953Z,77.45
2023-01-13T00:51:58.921Z,78.61
2023-01-13T00:56:58.834Z,80.14
2023-01-13T01:01:58.881Z,79.97
2023-01-13T01:06:58.749Z,81.30
2023-01-13T01:11:58.648Z,80.99
2023-01-13T01:16:58.575Z,80.89
2023-01-13T01:21:58.521Z,81.34
2023-01-13T01:26:58.459Z,82.36
2023-01-13T01:31:58.401Z,81.13
2023-01-13T01:36:58.307Z,81.85
2023-01-13T01:41:58.246Z,80.38
2023-01-13T01:46:58.295Z,79.87
2023-01-13T01:51:58.163Z,80.75
2023-01-13T01:56:58.045Z,79.36
2023-01-13T02:01:58.085Z,79.57
2023-01-13T02:06:57.916Z,78.23
2023-01-13T02:11:57.855Z,78.54
2023-01-13T02:16:57.821Z,79.57
2023-01-13T02:21:57.719Z,77.93
2023-01-13T02:26:57.669Z,77.72
2023-01-13T02:31:57.656Z,78.23
2023-01-13T02:36:57.524Z,77.18
2023-01-13T02:41:57.457Z,75.85
2023-01-13T02:46:57.402Z,76.36
2023-01-13T02:51:57.317Z,76.22
2023-01-13T02:56:57.255Z,75.82
2023-01-13T03:01:57.394Z,76.02
2023-01-13T03:06:57.028Z,75.00
2023-01-13T03:11:56.988Z,75.00
2023-01-13T03:16:56.902Z,75.00
2023-01-13T03:21:56.851Z,75.92
2023-01-13T03:26:56.766Z,75.82
2023-01-13T03:31:56.700Z,74.76
2023-01-13T03:36:56.629Z,74.76
2023-01-13T03:41:56.565Z,76.09
2023-01-13T03:46:56.522Z,74.76
2023-01-13T03:51:56.423Z,74.66
2023-01-13T03:56:56.369Z,75.00
2023-01-13T04:01:56.501Z,74.66
2023-01-13T04:06:56.262Z,74.96
2023-01-13T04:11:56.162Z,74.35
2023-01-13T04:16:56.111Z,75.48
2023-01-13T04:21:56.024Z,74.25
2023-01-13T04:26:55.969Z,75.57
2023-01-13T04:31:55.904Z,75.31
2023-01-13T04:36:55.831Z,75.41
2023-01-13T04:41:55.816Z,74.86
2023-01-13T04:46:55.697Z,74.96
2023-01-13T04:51:55.648Z,74.15
2023-01-13T04:56:55.574Z,75.78
2023-01-13T05:01:55.586Z,75.27
2023-01-13T05:06:55.435Z,76.19
2023-01-13T05:11:55.383Z,74.93
2023-01-13T05:16:55.309Z,75.37
2023-01-13T05:21:55.270Z,75.20
2023-01-13T05:26:55.208Z,74.11
2023-01-13T05:31:55.129Z,74.73
2023-01-13T05:36:55.072Z,74.86
2023-01-13T05:41:54.982Z,74.66
2023-01-13T05:46:54.984Z,75.20
2023-01-13T05:51:54.869Z,75.61
2023-01-13T05:56:54.778Z,74.90
2023-01-13T06:01:54.745Z,74.59
2023-01-13T06:06:54.652Z,76.32
2023-01-13T06:11:54.599Z,74.66
2023-01-13T06:16:54.519Z,75.48
2023-01-13T06:21:54.471Z,76.70
2023-01-13T06:26:54.415Z,75.57
2023-01-13T06:31:54.407Z,74.86
2023-01-13T06:36:54.281Z,76.19
2023-01-13T06:41:54.211Z,75.78
2023-01-13T06:46:54.192Z,76.39
2023-01-13T06:51:54.052Z,74.35
2023-01-13T06:56:54.004Z,74.29
2023-01-13T07:01:54.102Z,75.71
2023-01-13T07:06:53.878Z,75.78
2023-01-13T07:11:53.817Z,74.55
2023-01-13T07:16:53.721Z,77.78
2023-01-13T07:21:53.637Z,74.35
2023-01-13T07:26:53.617Z,75.13
2023-01-13T07:31:53.587Z,75.16
2023-01-13T07:36:53.461Z,74.73
2023-01-13T07:41:53.436Z,73.50
2023-01-13T07:46:53.310Z,74.01
2023-01-13T07:51:53.292Z,74.11
2023-01-13T07:56:53.178Z,72.55
2023-01-13T08:01:53.306Z,72.75
2023-01-13T08:07:00.051Z,73.10
2023-01-13T08:11:52.991Z,72.24
2023-01-13T08:16:52.941Z,71.53
2023-01-13T08:21:52.869Z,72.75
2023-01-13T08:26:52.801Z,71.50
2023-01-13T08:31:52.761Z,69.97
2023-01-13T08:36:52.679Z,71.56
2023-01-13T08:41:52.585Z,70.86
2023-01-13T08:46:52.564Z,72.14
2023-01-13T08:51:52.482Z,69.49
2023-01-13T08:56:52.514Z,68.88
2023-01-13T09:01:52.452Z,69.29
2023-01-13T09:06:52.307Z,69.26
2023-01-13T09:11:52.199Z,69.94
2023-01-13T09:16:52.160Z,66.89
2023-01-13T09:21:52.077Z,68.24
2023-01-13T09:26:51.998Z,67.93
2023-01-13T09:31:51.938Z,72.00
2023-01-13T09:36:51.868Z,78.00
2023-01-13T09:41:51.807Z,79.78
2023-01-13T09:46:51.774Z,81.36
2023-01-13T09:51:51.725Z,82.69
2023-01-13T09:56:51.585Z,83.98
2023-01-13T10:01:51.538Z,84.23
2023-01-13T10:06:51.484Z,86.38
2023-01-13T10:11:51.421Z,85.77
2023-01-13T10:16:51.392Z,85.31
2023-01-13T10:21:51.364Z,83.78
2023-01-13T10:26:51.220Z,84.42
2023-01-13T10:31:51.148Z,80.97
2023-01-13T10:36:51.116Z,81.01
2023-01-13T10:41:51.036Z,79.98
2023-01-13T10:46:51.091Z,78.41
2023-01-13T10:51:51.023Z,78.45
2023-01-13T10:56:50.826Z,79.74
2023-01-13T11:01:53.146Z,78.00
2023-01-13T11:06:50.719Z,79.50
2023-01-13T11:11:50.625Z,77.15
2023-01-13T11:16:53.753Z,78.68
2023-01-13T11:21:50.488Z,78.99
2023-01-13T11:26:50.463Z,77.86
2023-01-13T11:31:50.378Z,78.58
2023-01-13T11:36:50.342Z,78.44
2023-01-13T11:41:50.247Z,77.31
2023-01-13T11:46:50.208Z,75.27
2023-01-13T11:51:50.095Z,75.51
2023-01-13T11:56:50.078Z,75.21
2023-01-13T12:01:50.049Z,75.85
2023-01-13T12:06:49.896Z,76.09
2023-01-13T12:11:49.861Z,75.68
2023-01-13T12:16:49.862Z,76.71
2023-01-13T12:21:49.741Z,75.14
2023-01-13T12:26:49.645Z,73.64
2023-01-13T12:31:49.609Z,71.22
2023-01-13T12:36:49.519Z,72.04
2023-01-13T12:41:49.452Z,69.56
2023-01-13T12:46:49.512Z,70.34
2023-01-13T12:51:49.324Z,71.29
2023-01-13T12:56:49.240Z,71.22
2023-01-13T13:01:49.306Z,71.50
2023-01-13T13:06:49.110Z,71.02
2023-01-13T13:11:49.047Z,69.35
2023-01-13T13:16:49.064Z,70.64
2023-01-13T13:21:48.906Z,71.70
2023-01-13T13:26:48.866Z,72.34
2023-01-13T13:31:48.785Z,72.07
2023-01-13T13:36:49.459Z,71.42
2023-01-13T13:41:48.656Z,72.89
2023-01-13T13:46:48.627Z,72.92
2023-01-13T13:51:48.543Z,74.26
2023-01-13T13:56:48.471Z,75.38
2023-01-13T14:01:48.506Z,73.57
2023-01-13T14:06:48.579Z,73.13
2023-01-13T14:11:48.220Z,73.61
2023-01-13T14:16:48.143Z,74.08
2023-01-13T14:21:48.082Z,74.02
2023-01-13T14:26:48.033Z,74.46
2023-01-13T14:31:48.089Z,76.27
2023-01-13T14:36:47.962Z,75.24
2023-01-13T14:41:47.809Z,73.91
2023-01-13T14:46:47.911Z,73.64
2023-01-13T14:51:47.786Z,74.77
2023-01-13T14:56:47.649Z,72.28
2023-01-13T15:01:47.576Z,72.99
2023-01-13T15:06:47.449Z,72.14
2023-01-13T15:11:47.370Z,72.69
2023-01-13T15:16:54.284Z,73.47
2023-01-13T15:21:47.223Z,71.97
2023-01-13T15:26:47.165Z,74.56
2023-01-13T15:31:47.103Z,74.22
2023-01-13T15:36:47.764Z,76.89
2023-01-13T15:41:46.969Z,77.48
2023-01-13T15:46:46.952Z,80.36
2023-01-13T15:51:46.831Z,81.95
2023-01-13T15:56:46.825Z,83.01
2023-01-13T16:01:46.725Z,84.53
2023-01-13T16:06:46.643Z,86.63
2023-01-13T16:11:46.589Z,88.02
2023-01-13T16:16:46.518Z,89.09
2023-01-13T16:21:46.491Z,89.34
2023-01-13T16:26:46.476Z,89.34
2023-01-13T16:31:46.465Z,90.31
2023-01-13T16:36:46.300Z,91.28
2023-01-13T16:41:46.239Z,92.00
2023-01-13T16:46:46.244Z,92.52
2023-01-13T16:51:46.193Z,91.59
2023-01-13T16:56:46.080Z,91.13
2023-01-13T17:01:46.146Z,90.72
2023-01-13T17:06:45.941Z,88.98
2023-01-13T17:11:45.905Z,88.06
2023-01-13T17:16:46.305Z,89.29
2023-01-13T17:21:45.824Z,89.15
2023-01-13T17:26:45.969Z,87.60
2023-01-13T17:31:46.716Z,85.30
2023-01-13T17:36:45.608Z,82.92
2023-01-13T17:41:45.813Z,82.78
2023-01-13T17:46:45.479Z,80.10
2023-01-13T17:51:45.397Z,81.74
2023-01-13T17:56:45.558Z,77.51
2023-01-13T18:01:45.394Z,73.95
2023-01-13T18:06:45.220Z,72.85
2023-01-13T18:11:47.089Z,71.80
2023-01-13T18:16:45.234Z,70.42
2023-01-13T18:21:45.312Z,76.65
2023-01-13T18:26:44.911Z,74.57
2023-01-13T18:31:44.860Z,74.94
2023-01-13T18:36:44.927Z,74.26
2023-01-13T18:41:44.743Z,74.08
2023-01-13T18:46:44.743Z,72.72
2023-01-13T18:51:44.740Z,73.85
2023-01-13T18:56:44.568Z,72.99
2023-01-13T19:01:44.578Z,73.61
2023-01-13T19:06:44.425Z,73.10
2023-01-13T19:11:46.170Z,72.14
2023-01-13T19:16:44.265Z,74.39
2023-01-13T19:21:44.245Z,72.96
2023-01-13T19:26:44.156Z,73.10
2023-01-13T19:31:44.075Z,73.71
2023-01-13T19:36:44.010Z,74.39
2023-01-13T19:41:44.045Z,73.64
2023-01-13T19:46:43.939Z,72.55
2023-01-13T19:51:44.770Z,74.66
2023-01-13T19:56:43.745Z,71.39
2023-01-13T20:01:43.776Z,72.48
2023-01-13T20:06:43.680Z,73.23
2023-01-13T20:11:43.709Z,73.81
2023-01-13T20:16:43.575Z,71.80
2023-01-13T20:21:43.476Z,71.52
2023-01-13T20:26:43.437Z,73.88
2023-01-13T20:31:43.500Z,74.08
2023-01-13T20:36:43.411Z,73.16
2023-01-13T20:41:43.394Z,72.24
2023-01-13T20:46:43.401Z,69.79
2023-01-13T20:51:43.329Z,72.75
2023-01-13T20:56:43.673Z,73.47
2023-01-13T21:01:43.112Z,74.57
2023-01-13T21:06:42.835Z,74.66
2023-01-13T21:11:42.770Z,74.53
2023-01-13T21:16:42.795Z,75.56
2023-01-13T21:21:42.658Z,76.17
2023-01-13T21:26:42.609Z,75.11
2023-01-13T21:31:42.572Z,75.18
2023-01-13T21:36:42.476Z,77.33
2023-01-13T21:41:42.563Z,75.28
2023-01-13T21:46:42.426Z,75.08
2023-01-13T21:51:44.880Z,75.18
2023-01-13T21:56:42.369Z,75.76
2023-01-13T22:01:45.946Z,76.48
2023-01-13T22:06:43.094Z,76.00
2023-01-13T22:11:42.019Z,75.28
2023-01-13T22:16:42.105Z,76.48
2023-01-13T22:21:41.906Z,79.29
2023-01-13T22:26:48.811Z,78.92
2023-01-13T22:31:41.800Z,79.57
2023-01-13T22:36:41.677Z,80.19
2023-01-13T22:41:41.628Z,79.88
2023-01-13T22:46:41.661Z,79.57
2023-01-13T22:51:41.507Z,78.85
2023-01-13T22:56:41.432Z,79.67
2023-01-13T23:01:41.375Z,79.22
2023-01-13T23:06:41.300Z,78.78
2023-01-13T23:11:41.324Z,77.81
2023-01-13T23:16:41.331Z,77.78
2023-01-13T23:21:41.155Z,76.65
2023-01-13T23:26:41.405Z,80.96
2023-01-13T23:31:40.996Z,79.32
2023-01-13T23:36:41.405Z,80.07
2023-01-13T23:41:41.012Z,80.28
2023-01-13T23:46:40.818Z,80.63
2023-01-13T23:51:40.729Z,81.45
2023-01-13T23:56:40.647Z,81.79
